createdAt,value
2023-04-09T00:00:23.026Z,70.92
2023-04-09T00:02:49.781Z,70.94
2023-04-09T00:05:16.721Z,70.97
2023-04-09T00:07:44.583Z,70.76
2023-04-09T00:10:26.886Z,70.88
2023-04-09T00:12:54.096Z,71.06
2023-04-09T00:15:30.522Z,71.11
2023-04-09T00:18:01.218Z,71.25
2023-04-09T00:20:28.786Z,71.02
2023-04-09T00:22:55.598Z,71.38
2023-04-09T00:25:22.899Z,70.99
2023-04-09T00:27:49.724Z,71.25
2023-04-09T00:30:16.802Z,70.52
2023-04-09T00:32:43.916Z,71.29
2023-04-09T00:35:11.103Z,71.78
2023-04-09T00:37:38.432Z,71.40
2023-04-09T00:40:06.899Z,71.21
2023-04-09T00:42:36.809Z,71.74
2023-04-09T00:45:04.479Z,71.98
2023-04-09T00:48:10.886Z,72.19
2023-04-09T00:50:37.954Z,71.37
2023-04-09T00:53:05.580Z,72.25
2023-04-09T00:55:33.008Z,71.96
2023-04-09T00:58:00.984Z,72.83
2023-04-09T01:00:30.707Z,72.20
2023-04-09T01:02:58.260Z,72.63
2023-04-09T01:05:45.585Z,73.14
2023-04-09T01:08:52.162Z,73.34
2023-04-09T01:11:53.833Z,73.27
2023-04-09T01:14:51.933Z,73.08
2023-04-09T01:17:22.129Z,73.30
2023-04-09T01:20:01.718Z,73.51
2023-04-09T01:22:47.103Z,73.42
2023-04-09T01:25:30.379Z,73.64
2023-04-09T01:28:36.249Z,73.83
2023-04-09T01:31:06.854Z,73.90
2023-04-09T01:33:33.646Z,73.83
2023-04-09T01:36:00.461Z,73.38
2023-04-09T01:38:27.362Z,72.89
2023-04-09T01:40:55.756Z,73.24
2023-04-09T01:43:22.796Z,73.08
2023-04-09T01:45:49.687Z,73.71
2023-04-09T01:48:16.954Z,73.45
2023-04-09T01:50:44.219Z,72.45
2023-04-09T01:53:11.386Z,72.99
2023-04-09T01:55:38.481Z,71.99
2023-04-09T01:58:05.717Z,70.14
2023-04-09T02:00:36.454Z,68.24
2023-04-09T02:03:27.653Z,70.30
2023-04-09T02:05:57.589Z,68.36
2023-04-09T02:08:25.659Z,68.23
2023-04-09T02:10:55.878Z,66.44
2023-04-09T02:13:23.137Z,66.60
2023-04-09T02:15:50.051Z,71.85
2023-04-09T02:18:27.432Z,74.93
2023-04-09T02:20:55.258Z,73.00
2023-04-09T02:23:23.383Z,74.17
2023-04-09T02:25:50.713Z,72.95
2023-04-09T02:28:17.948Z,72.90
2023-04-09T02:30:45.330Z,72.78
2023-04-09T02:33:13.757Z,71.79
2023-04-09T02:35:40.916Z,74.60
2023-04-09T02:38:08.754Z,73.46
2023-04-09T02:40:35.562Z,71.34
2023-04-09T02:43:02.347Z,70.73
2023-04-09T02:45:29.140Z,71.49
2023-04-09T02:47:56.905Z,71.06
2023-04-09T02:50:24.883Z,75.37
2023-04-09T02:52:52.009Z,77.03
2023-04-09T02:55:20.752Z,77.92
2023-04-09T02:57:47.839Z,79.05
2023-04-09T03:00:17.496Z,79.67
2023-04-09T03:02:47.064Z,79.79
2023-04-09T03:05:13.870Z,80.63
2023-04-09T03:07:44.149Z,79.03
2023-04-09T03:10:12.057Z,76.78
2023-04-09T03:12:39.546Z,73.78
2023-04-09T03:15:08.882Z,78.86
2023-04-09T03:17:36.047Z,79.91
2023-04-09T03:20:03.613Z,81.48
2023-04-09T03:22:38.983Z,82.26
2023-04-09T03:25:06.548Z,82.16
2023-04-09T03:27:33.266Z,81.98
2023-04-09T03:30:00.320Z,82.00
2023-04-09T03:32:27.643Z,81.07
2023-04-09T03:34:54.831Z,80.84
2023-04-09T03:37:22.084Z,81.25
2023-04-09T03:39:49.154Z,80.52
2023-04-09T03:42:16.017Z,81.40
2023-04-09T03:44:43.304Z,80.64
2023-04-09T03:47:10.517Z,81.22
2023-04-09T03:49:37.205Z,80.99
2023-04-09T03:52:06.567Z,80.68
2023-04-09T03:54:33.847Z,80.61
2023-04-09T03:57:00.538Z,80.10
2023-04-09T03:59:27.634Z,79.88
2023-04-09T04:01:54.474Z,80.34
2023-04-09T04:04:23.539Z,80.69
2023-04-09T04:06:50.838Z,80.64
2023-04-09T04:09:18.153Z,81.12
2023-04-09T04:11:47.963Z,81.58
2023-04-09T04:14:15.477Z,81.00
2023-04-09T04:16:43.220Z,81.59
2023-04-09T04:19:10.476Z,82.11
2023-04-09T04:21:37.597Z,82.30
2023-04-09T04:24:04.735Z,82.34
2023-04-09T04:26:31.507Z,82.22
2023-04-09T04:28:58.369Z,82.02
2023-04-09T04:31:25.157Z,81.37
2023-04-09T04:33:52.218Z,81.30
2023-04-09T04:36:19.399Z,80.44
2023-04-09T04:38:46.157Z,79.96
2023-04-09T04:41:13.664Z,80.32
2023-04-09T04:43:41.576Z,78.52
2023-04-09T04:46:08.623Z,76.27
2023-04-09T04:48:35.796Z,74.65
2023-04-09T04:51:02.657Z,73.93
2023-04-09T04:53:30.733Z,72.21
2023-04-09T04:56:00.240Z,72.26
2023-04-09T04:58:27.520Z,70.35
2023-04-09T05:00:55.118Z,74.80
2023-04-09T05:03:24.140Z,78.11
2023-04-09T05:05:55.441Z,79.68
2023-04-09T05:08:22.679Z,81.37
2023-04-09T05:10:49.534Z,81.19
2023-04-09T05:13:16.758Z,81.52
2023-04-09T05:15:44.446Z,81.25
2023-04-09T05:18:14.126Z,81.35
2023-04-09T05:20:41.438Z,82.09
2023-04-09T05:23:09.563Z,81.55
2023-04-09T05:25:36.586Z,81.15
2023-04-09T05:28:03.809Z,80.62
2023-04-09T05:30:31.855Z,80.04
2023-04-09T05:32:58.714Z,79.69
2023-04-09T05:35:25.856Z,79.69
2023-04-09T05:37:52.907Z,79.23
2023-04-09T05:40:24.478Z,79.20
2023-04-09T05:42:53.391Z,78.67
2023-04-09T05:45:23.085Z,78.46
2023-04-09T05:47:50.309Z,77.65
2023-04-09T05:50:17.949Z,75.16
2023-04-09T05:52:47.595Z,76.37
2023-04-09T05:55:15.406Z,74.42
2023-04-09T05:57:45.079Z,71.39
2023-04-09T06:00:12.640Z,68.94
2023-04-09T06:02:42.360Z,68.34
2023-04-09T06:05:09.533Z,67.17
2023-04-09T06:07:36.970Z,67.62
2023-04-09T06:10:05.164Z,67.70
2023-04-09T06:12:34.263Z,68.75
2023-04-09T06:15:02.014Z,66.22
2023-04-09T06:17:29.157Z,65.19
2023-04-09T06:19:56.106Z,65.39
2023-04-09T06:22:25.872Z,64.50
2023-04-09T06:24:52.909Z,63.85
2023-04-09T06:27:22.403Z,67.55
2023-04-09T06:29:49.565Z,69.99
2023-04-09T06:32:17.109Z,70.22
2023-04-09T06:34:44.269Z,69.87
2023-04-09T06:37:11.069Z,71.62
2023-04-09T06:39:44.704Z,72.03
2023-04-09T06:42:17.368Z,70.61
2023-04-09T06:44:44.154Z,67.86
2023-04-09T06:47:11.376Z,66.01
2023-04-09T06:49:38.855Z,65.86
2023-04-09T06:52:09.088Z,66.64
2023-04-09T06:54:36.322Z,66.71
2023-04-09T06:57:04.322Z,65.39
2023-04-09T06:59:31.473Z,66.91
2023-04-09T07:02:00.740Z,65.83
2023-04-09T07:04:28.944Z,64.06
2023-04-09T07:06:56.954Z,64.96
2023-04-09T07:09:24.192Z,64.52
2023-04-09T07:11:51.262Z,63.39
2023-04-09T07:14:18.122Z,65.82
2023-04-09T07:16:48.084Z,66.84
2023-04-09T07:19:15.186Z,64.96
2023-04-09T07:21:44.693Z,62.67
2023-04-09T07:24:11.396Z,61.82
2023-04-09T07:26:38.141Z,61.37
2023-04-09T07:29:05.310Z,62.32
2023-04-09T07:31:33.387Z,62.83
2023-04-09T07:34:01.797Z,61.76
2023-04-09T07:36:28.679Z,62.09
2023-04-09T07:38:56.236Z,62.86
2023-04-09T07:41:26.115Z,62.82
2023-04-09T07:43:52.908Z,64.35
2023-04-09T07:46:20.406Z,64.17
2023-04-09T07:48:48.335Z,63.03
2023-04-09T07:51:15.221Z,63.34
2023-04-09T07:53:42.302Z,64.38
2023-04-09T07:56:09.093Z,63.20
2023-04-09T07:58:38.837Z,61.98
2023-04-09T08:01:06.554Z,61.11
2023-04-09T08:03:33.821Z,61.15
2023-04-09T08:06:03.806Z,60.10
2023-04-09T08:08:32.468Z,59.57
2023-04-09T08:10:59.617Z,63.00
2023-04-09T08:13:29.831Z,60.98
2023-04-09T08:15:56.587Z,62.17
2023-04-09T08:18:23.480Z,61.45
2023-04-09T08:20:50.598Z,62.30
2023-04-09T08:23:17.904Z,62.94
2023-04-09T08:25:44.856Z,65.15
2023-04-09T08:28:12.062Z,64.54
2023-04-09T08:30:38.855Z,65.29
2023-04-09T08:33:08.635Z,62.54
2023-04-09T08:35:35.930Z,63.96
2023-04-09T08:38:02.673Z,64.01
2023-04-09T08:40:35.709Z,62.25
2023-04-09T08:43:05.955Z,61.84
2023-04-09T08:45:33.308Z,61.79
2023-04-09T08:48:00.105Z,60.90
2023-04-09T08:50:27.069Z,61.16
2023-04-09T08:52:55.144Z,60.74
2023-04-09T08:55:24.888Z,62.34
2023-04-09T08:57:54.559Z,63.00
2023-04-09T09:00:21.430Z,63.05
2023-04-09T09:03:12.984Z,62.30
2023-04-09T09:05:44.149Z,62.84
2023-04-09T09:08:12.937Z,62.85
2023-04-09T09:10:45.738Z,60.96
2023-04-09T09:13:24.462Z,63.28
2023-04-09T09:15:52.689Z,63.38
2023-04-09T09:18:20.048Z,62.37
2023-04-09T09:20:49.787Z,63.28
2023-04-09T09:23:16.975Z,64.10
2023-04-09T09:25:44.077Z,64.00
2023-04-09T09:28:12.429Z,62.52
2023-04-09T09:30:39.812Z,62.15
2023-04-09T09:33:08.940Z,62.90
2023-04-09T09:35:57.350Z,61.22
2023-04-09T09:38:24.540Z,60.37
2023-04-09T09:40:51.681Z,61.30
2023-04-09T09:43:20.005Z,61.18
2023-04-09T09:45:48.001Z,60.06
2023-04-09T09:48:20.685Z,60.99
2023-04-09T09:50:47.831Z,58.34
2023-04-09T09:53:14.570Z,58.42
2023-04-09T09:55:42.664Z,59.75
2023-04-09T09:58:26.190Z,55.91
2023-04-09T10:00:53.384Z,61.42
2023-04-09T10:03:21.865Z,58.72
2023-04-09T10:05:48.824Z,59.38
2023-04-09T10:08:17.317Z,58.86
2023-04-09T10:10:45.340Z,57.90
2023-04-09T10:13:16.402Z,58.00
2023-04-09T10:15:43.734Z,58.26
2023-04-09T10:18:11.013Z,56.41
2023-04-09T10:20:45.957Z,55.29
2023-04-09T10:23:22.293Z,57.53
2023-04-09T10:25:50.184Z,56.38
2023-04-09T10:28:18.072Z,56.11
2023-04-09T10:30:44.850Z,54.16
2023-04-09T10:33:15.973Z,55.14
2023-04-09T10:35:43.118Z,55.98
2023-04-09T10:38:11.123Z,57.09
2023-04-09T10:40:57.084Z,56.17
2023-04-09T10:43:24.137Z,57.06
2023-04-09T10:45:51.710Z,56.05
2023-04-09T10:48:21.425Z,56.55
2023-04-09T10:50:49.156Z,55.62
2023-04-09T10:53:28.098Z,54.88
2023-04-09T10:55:56.007Z,54.27
2023-04-09T10:58:27.448Z,54.13
2023-04-09T11:00:54.993Z,52.99
2023-04-09T11:03:30.804Z,52.66
2023-04-09T11:06:04.043Z,53.49
2023-04-09T11:08:34.121Z,54.30
2023-04-09T11:11:01.054Z,53.31
2023-04-09T11:13:28.742Z,53.43
2023-04-09T11:15:55.876Z,53.14
2023-04-09T11:18:26.066Z,51.89
2023-04-09T11:20:56.713Z,52.72
2023-04-09T11:23:26.511Z,52.46
2023-04-09T11:25:59.506Z,51.89
2023-04-09T11:28:27.386Z,51.86
2023-04-09T11:30:55.534Z,50.58
2023-04-09T11:33:22.727Z,52.26
2023-04-09T11:35:49.851Z,52.04
2023-04-09T11:38:17.727Z,51.97
2023-04-09T11:40:44.750Z,51.71
2023-04-09T11:43:11.845Z,50.68
2023-04-09T11:45:39.738Z,51.01
2023-04-09T11:48:07.088Z,49.92
2023-04-09T11:50:33.872Z,49.35
2023-04-09T11:53:01.665Z,48.91
2023-04-09T11:55:28.936Z,49.53
2023-04-09T11:58:00.170Z,50.89
2023-04-09T12:00:27.039Z,49.48
2023-04-09T12:03:03.050Z,49.67
2023-04-09T12:05:32.367Z,50.80
2023-04-09T12:08:00.140Z,51.00
2023-04-09T12:10:33.360Z,48.45
2023-04-09T12:13:07.205Z,47.97
2023-04-09T12:15:36.321Z,47.76
2023-04-09T12:18:07.857Z,47.72
2023-04-09T12:20:35.821Z,49.57
2023-04-09T12:23:06.630Z,48.25
2023-04-09T12:25:39.719Z,48.44
2023-04-09T12:28:08.511Z,48.34
2023-04-09T12:30:35.268Z,46.93
2023-04-09T12:33:03.239Z,47.07
2023-04-09T12:35:30.060Z,46.82
2023-04-09T12:37:57.177Z,46.88
2023-04-09T12:40:27.000Z,46.72
2023-04-09T12:42:55.263Z,46.89
2023-04-09T12:45:22.424Z,46.26
2023-04-09T12:47:49.280Z,45.85
2023-04-09T12:50:16.989Z,45.26
2023-04-09T12:52:44.014Z,47.50
2023-04-09T12:55:11.925Z,46.54
2023-04-09T12:57:38.985Z,47.25
2023-04-09T13:00:25.697Z,43.91
2023-04-09T13:02:52.598Z,43.68
2023-04-09T13:05:20.102Z,43.96
2023-04-09T13:07:49.975Z,44.74
2023-04-09T13:10:17.438Z,45.56
2023-04-09T13:12:44.523Z,44.67
2023-04-09T13:15:12.016Z,44.68
2023-04-09T13:17:39.670Z,45.00
2023-04-09T13:20:08.281Z,44.81
2023-04-09T13:22:35.489Z,45.41
2023-04-09T13:25:02.207Z,43.61
2023-04-09T13:27:30.249Z,44.19
2023-04-09T13:29:57.368Z,43.82
2023-04-09T13:32:24.521Z,43.67
2023-04-09T13:34:52.504Z,44.93
2023-04-09T13:37:19.377Z,44.17
2023-04-09T13:39:46.545Z,43.50
2023-04-09T13:42:14.591Z,40.95
2023-04-09T13:44:43.579Z,43.62
2023-04-09T13:47:12.555Z,44.23
2023-04-09T13:49:39.788Z,43.67
2023-04-09T13:52:06.704Z,44.10
2023-04-09T13:54:33.769Z,43.87
2023-04-09T13:57:01.126Z,43.42
2023-04-09T13:59:28.589Z,41.46
2023-04-09T14:01:55.630Z,43.00
2023-04-09T14:04:22.547Z,43.28
2023-04-09T14:06:49.680Z,41.40
2023-04-09T14:09:17.671Z,40.80
2023-04-09T14:15:17.137Z,41.26
2023-04-09T14:17:44.001Z,41.46
2023-04-09T14:20:14.780Z,42.09
2023-04-09T14:22:41.713Z,40.63
2023-04-09T14:25:09.249Z,40.85
2023-04-09T14:27:36.258Z,40.89
2023-04-09T14:30:04.876Z,41.11
2023-04-09T14:32:45.977Z,40.48
2023-04-09T14:35:12.789Z,40.69
2023-04-09T14:37:39.557Z,39.97
2023-04-09T14:40:08.883Z,39.10
2023-04-09T14:42:35.845Z,39.06
2023-04-09T14:45:04.079Z,39.24
2023-04-09T14:47:30.847Z,40.03
2023-04-09T14:49:57.673Z,37.49
2023-04-09T14:52:24.562Z,38.87
2023-04-09T14:54:52.470Z,38.35
2023-04-09T14:57:20.784Z,38.19
2023-04-09T14:59:47.542Z,37.27
2023-04-09T15:02:14.470Z,38.54
2023-04-09T15:04:41.815Z,39.86
2023-04-09T15:07:09.960Z,39.92
2023-04-09T15:13:25.240Z,39.26
2023-04-09T15:15:53.741Z,38.62
2023-04-09T15:18:21.968Z,37.46
2023-04-09T15:20:49.009Z,38.83
2023-04-09T15:23:15.828Z,39.04
2023-04-09T15:25:42.596Z,38.11
2023-04-09T15:28:09.730Z,39.72
2023-04-09T15:30:36.840Z,38.91
2023-04-09T15:33:04.460Z,39.42
2023-04-09T15:35:31.814Z,40.39
2023-04-09T15:37:59.313Z,37.98
2023-04-09T15:40:27.476Z,38.01
2023-04-09T15:42:54.308Z,37.48
2023-04-09T15:45:22.644Z,37.60
2023-04-09T15:47:49.655Z,37.30
2023-04-09T15:50:16.448Z,36.66
2023-04-09T15:52:43.847Z,34.44
2023-04-09T15:55:11.922Z,34.79
2023-04-09T15:57:39.731Z,36.47
2023-04-09T16:00:08.471Z,35.53
2023-04-09T16:02:35.296Z,34.03
2023-04-09T16:05:19.963Z,33.83
2023-04-09T16:07:47.120Z,33.70
2023-04-09T16:10:14.464Z,33.95
2023-04-09T16:12:41.239Z,32.86
2023-04-09T16:15:08.827Z,31.98
2023-04-09T16:17:40.655Z,31.60
2023-04-09T16:20:08.462Z,31.29
2023-04-09T16:22:36.316Z,30.33
2023-04-09T16:25:03.057Z,33.32
2023-04-09T16:27:30.095Z,31.88
2023-04-09T16:29:57.126Z,30.04
2023-04-09T16:32:24.575Z,29.67
2023-04-09T16:34:51.507Z,29.28
2023-04-09T16:37:19.880Z,30.60
2023-04-09T16:39:48.834Z,34.21
2023-04-09T16:46:09.040Z,31.88
2023-04-09T16:48:36.886Z,29.97
2023-04-09T16:51:03.730Z,30.13
2023-04-09T16:57:23.892Z,31.65
2023-04-09T16:59:51.609Z,29.56
2023-04-09T17:02:18.360Z,29.02
2023-04-09T17:04:45.106Z,30.90
2023-04-09T17:07:12.714Z,29.19
2023-04-09T17:09:39.686Z,33.57
2023-04-09T17:16:00.135Z,31.19
2023-04-09T17:18:26.850Z,33.13
2023-04-09T17:20:53.757Z,33.82
2023-04-09T17:23:20.581Z,36.34
2023-04-09T17:25:48.154Z,36.34
2023-04-09T17:28:16.286Z,37.92
2023-04-09T17:30:45.468Z,39.02
2023-04-09T17:33:12.528Z,39.38
2023-04-09T17:35:39.745Z,39.95
2023-04-09T17:38:06.945Z,40.18
2023-04-09T17:40:34.038Z,39.64
2023-04-09T17:43:01.205Z,41.36
2023-04-09T17:45:29.172Z,43.40
2023-04-09T17:47:56.095Z,43.48
2023-04-09T17:50:22.886Z,44.27
2023-04-09T17:52:49.775Z,44.35
2023-04-09T17:55:18.017Z,44.42
2023-04-09T17:57:47.003Z,45.33
2023-04-09T18:00:14.264Z,45.83
2023-04-09T18:02:41.275Z,46.10
2023-04-09T18:05:09.839Z,45.77
2023-04-09T18:07:36.884Z,46.91
2023-04-09T18:10:04.975Z,46.87
2023-04-09T18:12:31.916Z,47.56
2023-04-09T18:14:58.711Z,47.06
2023-04-09T18:17:26.619Z,47.63
2023-04-09T18:19:55.469Z,47.67
2023-04-09T18:22:24.172Z,47.50
2023-04-09T18:24:51.372Z,47.79
2023-04-09T18:27:18.781Z,47.89
2023-04-09T18:29:45.543Z,48.46
2023-04-09T18:32:13.365Z,48.33
2023-04-09T18:34:40.168Z,48.63
2023-04-09T18:37:07.200Z,48.83
2023-04-09T18:39:37.443Z,49.07
2023-04-09T18:42:04.225Z,48.84
2023-04-09T18:44:32.061Z,49.20
2023-04-09T18:46:59.281Z,48.86
2023-04-09T18:49:26.282Z,48.77
2023-04-09T18:51:53.516Z,49.84
2023-04-09T18:54:20.324Z,49.50
2023-04-09T18:56:47.372Z,49.97
2023-04-09T18:59:14.519Z,50.05
2023-04-09T19:01:41.633Z,50.35
2023-04-09T19:04:08.535Z,50.42
2023-04-09T19:06:52.919Z,50.52
2023-04-09T19:09:19.745Z,50.64
2023-04-09T19:11:47.016Z,50.56
2023-04-09T19:14:50.029Z,50.90
2023-04-09T19:17:17.090Z,50.69
2023-04-09T19:19:43.920Z,50.57
2023-04-09T19:22:10.683Z,50.52
2023-04-09T19:24:37.446Z,50.94
2023-04-09T19:27:04.450Z,50.40
2023-04-09T19:29:32.070Z,50.70
2023-04-09T19:32:05.009Z,50.67
2023-04-09T19:34:31.852Z,50.12
2023-04-09T19:36:58.581Z,50.60
2023-04-09T19:39:25.449Z,50.21
2023-04-09T19:41:53.269Z,50.60
2023-04-09T19:44:20.101Z,50.91
2023-04-09T19:46:46.933Z,50.64
2023-04-09T19:49:14.489Z,50.90
2023-04-09T19:51:42.289Z,50.56
2023-04-09T19:54:09.152Z,51.08
2023-04-09T19:56:38.925Z,52.01
2023-04-09T19:59:05.737Z,51.46
2023-04-09T20:01:32.683Z,51.92
2023-04-09T20:03:59.688Z,51.74
2023-04-09T20:06:28.023Z,52.59
2023-04-09T20:08:55.921Z,52.93
2023-04-09T20:11:22.799Z,53.05
2023-04-09T20:13:49.566Z,52.93
2023-04-09T20:16:17.892Z,52.79
2023-04-09T20:18:44.903Z,53.15
2023-04-09T20:21:11.636Z,53.40
2023-04-09T20:23:38.834Z,53.50
2023-04-09T20:26:05.710Z,54.20
2023-04-09T20:28:32.556Z,53.88
2023-04-09T20:30:59.400Z,53.99
2023-04-09T20:33:26.413Z,53.84
2023-04-09T20:35:53.207Z,54.37
2023-04-09T20:38:20.700Z,54.32
2023-04-09T20:40:47.845Z,54.75
2023-04-09T20:43:14.660Z,54.63
2023-04-09T20:45:41.664Z,54.72
2023-04-09T20:48:08.440Z,54.98
2023-04-09T20:50:35.329Z,55.35
2023-04-09T20:53:02.098Z,55.33
2023-04-09T20:55:28.969Z,55.47
2023-04-09T20:57:57.115Z,56.39
2023-04-09T21:00:23.988Z,55.89
2023-04-09T21:02:52.811Z,56.35
2023-04-09T21:05:23.357Z,56.33
2023-04-09T21:07:51.991Z,56.10
2023-04-09T21:10:21.873Z,56.25
2023-04-09T21:12:48.601Z,56.69
2023-04-09T21:15:16.525Z,56.55
2023-04-09T21:17:43.233Z,56.96
2023-04-09T21:20:10.311Z,55.96
2023-04-09T21:22:37.587Z,56.39
2023-04-09T21:25:05.765Z,56.34
2023-04-09T21:27:32.518Z,55.74
2023-04-09T21:29:59.244Z,54.69
2023-04-09T21:32:26.957Z,54.16
2023-04-09T21:34:54.002Z,54.83
2023-04-09T21:37:21.784Z,54.27
2023-04-09T21:39:48.670Z,53.64
2023-04-09T21:42:15.764Z,52.08
2023-04-09T21:44:42.625Z,52.84
2023-04-09T21:47:10.478Z,51.99
2023-04-09T21:49:37.561Z,56.58
2023-04-09T21:52:04.273Z,56.69
2023-04-09T21:54:31.015Z,54.62
2023-04-09T21:56:59.023Z,57.58
2023-04-09T21:59:25.721Z,54.92
2023-04-09T22:02:00.418Z,53.48
2023-04-09T22:04:27.378Z,58.54
2023-04-09T22:06:54.159Z,57.28
2023-04-09T22:09:22.211Z,58.67
2023-04-09T22:11:48.931Z,61.13
2023-04-09T22:14:16.165Z,62.05
2023-04-09T22:16:43.324Z,61.83
2023-04-09T22:19:10.160Z,63.64
2023-04-09T22:21:37.022Z,59.58
2023-04-09T22:24:04.165Z,63.39
2023-04-09T22:26:31.463Z,61.81
2023-04-09T22:28:58.546Z,61.14
2023-04-09T22:31:52.569Z,61.00
2023-04-09T22:34:21.145Z,61.24
2023-04-09T22:36:49.085Z,63.76
2023-04-09T22:39:15.981Z,64.25
2023-04-09T22:41:42.732Z,63.67
2023-04-09T22:44:09.918Z,65.37
2023-04-09T22:46:36.842Z,65.51
2023-04-09T22:49:05.303Z,64.27
2023-04-09T22:51:32.746Z,65.79
2023-04-09T22:53:59.920Z,66.49
2023-04-09T22:56:26.630Z,65.91
2023-04-09T22:58:56.046Z,65.04
2023-04-09T23:01:23.108Z,65.07
2023-04-09T23:03:50.112Z,65.55
2023-04-09T23:06:17.363Z,65.28
2023-04-09T23:08:44.350Z,64.98
2023-04-09T23:11:11.517Z,63.69
2023-04-09T23:13:38.750Z,63.57
2023-04-09T23:16:09.410Z,63.08
2023-04-09T23:18:36.267Z,62.28
2023-04-09T23:21:26.439Z,61.44
2023-04-09T23:23:53.349Z,64.50
2023-04-09T23:26:20.582Z,64.29
2023-04-09T23:28:47.338Z,64.44
2023-04-09T23:31:14.041Z,64.38
2023-04-09T23:33:40.765Z,64.59
2023-04-09T23:36:07.950Z,64.41
2023-04-09T23:38:34.991Z,65.18
2023-04-09T23:41:02.799Z,65.88
2023-04-09T23:43:30.921Z,66.16
2023-04-09T23:45:58.874Z,65.90
2023-04-09T23:48:26.982Z,67.74
2023-04-09T23:50:53.824Z,68.55
2023-04-09T23:53:20.675Z,68.91
2023-04-09T23:55:47.883Z,68.17
2023-04-09T23:58:14.624Z,67.85
